• Join FlightAware (Why Join?)
  • Login
  • US Flag 
10:10AM EDT


 

Airport Tracker/Info


-or-


 

Live Flight TrackerFlight Track Log ✈ SKW4728 ✈ 28-Apr-2013 ✈ KSLC - KMFR

Flight Track Log - Related Links

Times and Time Zones

All times are in EDT time to prevent confusion due to time zone crossing. See the SKW4728 flight status page for this flight to view local times or setup timezone preferences in your user account.

Time Position Orientation Groundspeed Altitude Reporting Facility
EDT Latitude Longitude Course Direction KTS MPH feet Rate Location/Type
01:32PM 40.7647 -111.9964 258° West 194 223 5,100  Level Salt Lake Center
01:32PM 40.7511 -112.0039 203° Southwest 198 228 5,800 2,220 Climbing Salt Lake Center
01:33PM 40.7506 -112.0778 269° West 224 258 8,100 1,860 Climbing Salt Lake Center
01:34PM 40.7669 -112.1150 300° West 238 274 8,900 1,560 Climbing Salt Lake Center
01:34PM 40.7822 -112.1633 293° West 272 313 9,700 2,400 Climbing Salt Lake Center
01:35PM 40.8649 -112.4477 261° West  Level FlightAware Approximate
01:35PM 40.7986 -112.2094 295° West 278 320 11,400  Level Salt Lake Center
01:36PM 40.8500 -112.5831 270° West  Level FlightAware Approximate
01:36PM 40.8297 -112.3036 294° West 279 321 13,600  Level Salt Lake Center
01:37PM 40.8386 -112.7184 258° West  Level FlightAware Approximate
01:37PM 40.8539 -112.4256 285° West 285 328 16,300  Level Salt Lake Center
01:38PM 40.8747 -112.5297 285° West 292 336 18,000 1,620 Climbing Salt Lake Center
01:39PM 40.8950 -112.6344 284° West 294 338 19,700 1,560 Climbing Salt Lake Center
01:40PM 40.9156 -112.7414 284° West 302 348 21,300 1,440 Climbing Salt Lake Center
01:41PM 40.9367 -112.8508 284° West 307 353 22,700 1,260 Climbing Salt Lake Center
01:42PM 40.9578 -112.9642 284° West 316 364 23,900 1,200 Climbing Salt Lake Center
01:43PM 40.9794 -113.0783 284° West 319 367 25,200 1,140 Climbing Salt Lake Center
01:44PM 41.0017 -113.1964 284° West 329 379 26,300 1,020 Climbing Salt Lake Center
01:45PM 41.0281 -113.3375 284° West 330 380 27,400 960 Climbing Salt Lake Center
01:46PM 41.0492 -113.4583 283° West 335 386 28,300 780 Climbing Salt Lake Center
01:47PM 41.0736 -113.5808 285° West 342 394 29,100 780 Climbing Salt Lake Center
01:48PM 41.0953 -113.7047 283° West 345 397 30,000 720 Climbing Salt Lake Center
01:49PM 41.1178 -113.8297 283° West 348 400 30,600 600 Climbing Salt Lake Center
01:50PM 41.1419 -113.9550 284° West 350 403 31,300 540 Climbing Salt Lake Center
01:51PM 41.1631 -114.0825 282° West 353 406 31,800 300 Climbing Salt Lake Center
01:52PM 41.1897 -114.2381 283° West 359 413 32,000 60 Climbing Salt Lake Center
01:53PM 41.2139 -114.3686 284° West 364 419 32,000  Level Salt Lake Center
01:54PM 41.2383 -114.4981 284° West 363 418 32,000  Level Salt Lake Center
01:55PM 41.2589 -114.6272 282° West 360 414 32,000  Level Salt Lake Center
01:56PM 41.2822 -114.7564 284° West 359 413 32,000  Level Salt Lake Center
01:57PM 41.3069 -114.9006 283° West 363 418 32,000  Level Salt Lake Center
01:58PM 41.3286 -115.0250 283° West 362 417 32,000  Level Salt Lake Center
02:00PM 41.3533 -115.1714 283° West 363 418 32,000  Level Salt Lake Center
02:01PM 41.3742 -115.2961 283° West 362 417 32,000  Level Salt Lake Center
02:02PM 41.3981 -115.4425 282° West 363 418 32,000  Level Salt Lake Center
02:03PM 41.4197 -115.5672 283° West 362 417 32,000  Level Salt Lake Center
02:04PM 41.4431 -115.7142 282° West 363 418 32,000  Level Salt Lake Center
02:05PM 41.4631 -115.8381 282° West 360 414 32,000  Level Salt Lake Center
02:06PM 41.4833 -115.9622 282° West 360 414 32,000  Level Salt Lake Center
02:07PM 41.5069 -116.1075 282° West 360 414 32,000  Level Salt Lake Center
02:08PM 41.5267 -116.2331 282° West 361 415 32,000  Level Salt Lake Center
02:09PM 41.5506 -116.3803 282° West 364 419 32,000  Level Salt Lake Center
02:10PM 41.5703 -116.5064 282° West 363 418 32,000  Level Salt Lake Center
02:11PM 41.5922 -116.6517 281° West 361 415 32,000  Level Salt Lake Center
02:12PM 41.6114 -116.7772 282° West 361 415 32,000  Level Salt Lake Center
02:13PM 41.6333 -116.9211 282° West 357 411 32,000  Level Salt Lake Center
02:14PM 41.6525 -117.0444 282° West 355 409 32,000  Level Salt Lake Center
02:15PM 41.6744 -117.1900 281° West 357 411 32,000  Level Salt Lake Center
02:16PM 41.6928 -117.3156 281° West 359 413 32,000  Level Salt Lake Center
02:17PM 41.7108 -117.4386 281° West 356 410 32,000  Level Salt Lake Center
02:18PM 41.7308 -117.5811 281° West 352 405 32,000  Level Salt Lake Center
02:19PM 41.7494 -117.7056 281° West 355 409 32,000  Level Salt Lake Center
02:20PM 41.7703 -117.8503 281° West 354 407 32,000  Level Salt Lake Center
02:21PM 41.7883 -117.9733 281° West 351 404 32,000  Level Salt Lake Center
02:22PM 41.8086 -118.1186 281° West 354 407 32,000  Level Salt Lake Center
02:23PM 41.8258 -118.2408 281° West 351 404 32,000  Level Salt Lake Center
02:24PM 41.8464 -118.3858 281° West 352 405 32,000  Level Salt Lake Center
02:25PM 41.8636 -118.5100 281° West 354 407 32,000  Level Salt Lake Center
02:26PM 41.8825 -118.6531 280° West 350 403 32,000  Level Salt Lake Center
02:27PM 41.8997 -118.7789 280° West 356 410 32,000  Level Salt Lake Center
02:28PM 41.9156 -118.9017 280° West 351 404 32,000  Level Salt Lake Center
02:29PM 41.9353 -119.0467 280° West 354 407 32,000  Level Salt Lake Center
02:30PM 41.9522 -119.1722 280° West 355 409 32,000  Level Salt Lake Center
02:31PM 41.9703 -119.3186 279° West 356 410 32,000  Level Salt Lake Center
02:33PM 41.9861 -119.4450 280° West 357 411 32,000  Level Salt Lake Center
02:34PM 42.0047 -119.5767 281° West 354 407 32,000  Level Salt Lake Center
02:35PM 42.0214 -119.7083 280° West 356 410 32,000  Level Salt Lake Center
02:36PM 42.0375 -119.8394 279° West 356 410 32,000  Level Salt Lake Center
02:37PM 42.0572 -119.9972 280° West 358 412 32,000  Level Salt Lake Center
02:38PM 42.0739 -120.1267 280° West 351 404 32,000  Level Salt Lake Center
02:39PM 42.0894 -120.2586 279° West 355 409 32,000  Level Salt Lake Center
02:40PM 42.1056 -120.3906 279° West 357 411 32,000  Level Salt Lake Center
02:41PM 42.1214 -120.5375 278° West 359 413 32,000  Level Seattle Center
02:42PM 42.1369 -120.6694 279° West 358 412 32,000 -600 Level Seattle Center
02:43PM 42.1522 -120.8008 279° West 357 411 30,900 -1,320 Descending Seattle Center
02:44PM 42.1675 -120.9256 279° West 345 397 29,400 -1,560 Descending Seattle Center
02:45PM 42.1819 -121.0425 280° West 322 371 27,800 -1,680 Descending Seattle Center
02:46PM 42.1936 -121.1542 278° West 308 354 26,100 -1,680 Descending Seattle Center
02:47PM 42.2061 -121.2631 279° West 297 342 24,400 -1,680 Descending Seattle Center
02:48PM 42.2158 -121.3653 277° West 282 325 22,700 -1,920 Descending Seattle Center
02:49PM 42.2308 -121.4892 279° West 278 320 20,600 -1,920 Descending Seattle Center
02:50PM 42.2411 -121.5881 278° West 268 308 18,900 -1,560 Descending Seattle Center
02:51PM 42.2525 -121.6867 279° West 268 308 17,500 -1,380 Descending Seattle Center
02:52PM 42.2617 -121.7808 278° West 259 298 16,100 -1,380 Descending Seattle Center
02:53PM 42.2719 -121.8694 279° West 250 288 14,700 -1,380 Descending Seattle Center
02:54PM 42.2806 -121.9536 278° West 239 275 13,300 -1,380 Descending Seattle Center
02:55PM 42.2889 -122.0350 278° West 229 264 12,000 -660 Descending Seattle Center
02:56PM 42.2964 -122.1108 278° West 217 250 12,000  Level Seattle Center
02:57PM 42.3056 -122.1919 279° West 219 252 12,000 -180 Level Seattle Center
02:58PM 42.3153 -122.2858 278° West 210 242 11,700 -900 Descending Seattle Center
02:59PM 42.2983 -122.3631 254° West 221 254 10,200 -1,260 Descending Seattle Center
03:00PM 42.2717 -122.4400 245° Southwest 226 260 9,200 -960 Descending Seattle Center
03:01PM 42.2500 -122.5014 245° Southwest 195 224 8,300 -960 Descending Seattle Center
03:02PM 42.2303 -122.5678 248° West 193 222 7,300 -1,140 Descending Seattle Center
03:03PM 42.2139 -122.6353 252° West 193 222 6,000 -1,020 Descending Seattle Center
03:04PM 42.2219 -122.7039 279° West 192 221 5,300 -900 Descending Seattle Center
03:05PM 42.2419 -122.7786 290° West 180 207 4,200 -960 Descending Seattle Center
03:06PM 42.2769 -122.8194 319° Northwest 171 197 3,400 -840 Descending Seattle Center